Time;durP1;ratioP1;P1;durP2;ratioP2;P2;SDS_P1;SDS_P2;PMS_P1;PMS_P2;Temp;Humidity;BMP_temperature;BMP_pressure;BME280_temperature;BME280_humidity;BME280_pressure;Samples;Min_cycle;Max_cycle;Signal;HPM_P1;HPM_P2
2021/12/01 00:00:34;;;;;;;4.35;1.00;;;17.30;67.00;;;;;;5035485;28;20045;-27
2021/12/01 00:02:59;;;;;;;1.67;0.65;;;17.20;67.00;;;;;;5036420;28;20052;-24
2021/12/01 00:05:27;;;;;;;3.22;0.88;;;17.30;66.80;;;;;;5036350;28;20091;-25
2021/12/01 00:07:52;;;;;;;2.63;0.80;;;17.30;66.70;;;;;;5036705;28;20049;-25
2021/12/01 00:10:18;;;;;;;2.58;0.60;;;17.30;66.80;;;;;;5035669;28;20034;-24
2021/12/01 00:12:44;;;;;;;1.38;0.70;;;17.20;66.70;;;;;;5036267;28;20139;-29
2021/12/01 00:15:10;;;;;;;1.40;0.50;;;17.20;66.60;;;;;;5036758;28;20038;-25
2021/12/01 00:17:35;;;;;;;1.55;0.75;;;17.20;66.60;;;;;;5035835;28;20095;-28
2021/12/01 00:20:01;;;;;;;3.53;0.85;;;17.30;66.40;;;;;;5036470;28;20047;-23
2021/12/01 00:22:27;;;;;;;4.32;0.70;;;17.20;66.40;;;;;;5035087;28;20080;-25
2021/12/01 00:24:53;;;;;;;5.28;0.88;;;17.20;66.30;;;;;;5036356;28;20042;-24
2021/12/01 00:27:19;;;;;;;3.63;0.98;;;17.20;66.30;;;;;;5035872;28;20038;-27
2021/12/01 00:29:44;;;;;;;2.55;0.70;;;17.30;66.30;;;;;;5036391;28;20095;-23
2021/12/01 00:32:10;;;;;;;1.73;0.70;;;17.20;66.20;;;;;;5036012;28;20041;-21
2021/12/01 00:34:36;;;;;;;1.13;0.68;;;17.20;66.00;;;;;;5035127;28;20041;-26
2021/12/01 00:37:01;;;;;;;2.35;0.40;;;17.20;66.00;;;;;;5034047;28;20056;-23
2021/12/01 00:39:27;;;;;;;1.60;0.55;;;17.20;66.00;;;;;;5027839;28;20123;-27
2021/12/01 00:41:55;;;;;;;0.85;0.50;;;17.20;65.90;;;;;;5025577;28;20553;-22
2021/12/01 00:44:20;;;;;;;2.75;0.77;;;17.20;65.90;;;;;;5015412;28;20061;-26
2021/12/01 00:46:55;;;;;;;1.35;0.55;;;17.20;65.80;;;;;;5015873;28;20058;-26
2021/12/01 00:49:21;;;;;;;1.20;0.60;;;17.30;65.80;;;;;;5015546;28;20042;-24
2021/12/01 00:51:47;;;;;;;2.92;0.50;;;17.20;65.80;;;;;;5033149;28;20064;-26
2021/12/01 00:54:12;;;;;;;1.20;0.50;;;17.20;65.60;;;;;;5035609;28;20491;-24
2021/12/01 00:56:38;;;;;;;1.83;0.80;;;17.20;65.70;;;;;;5034761;28;20103;-30
2021/12/01 00:59:04;;;;;;;2.58;0.93;;;17.20;65.60;;;;;;5035934;28;20502;-25
2021/12/01 01:01:29;;;;;;;1.65;0.55;;;17.20;65.60;;;;;;5034662;28;20521;-24
2021/12/01 01:03:55;;;;;;;0.88;0.45;;;17.20;65.60;;;;;;5035534;28;20052;-26
2021/12/01 01:06:20;;;;;;;1.65;0.60;;;17.20;65.50;;;;;;5035073;28;20049;-27
2021/12/01 01:08:46;;;;;;;1.08;0.50;;;17.20;65.50;;;;;;5035490;28;20504;-23
2021/12/01 01:16:43;;;;;;;0.52;0.28;;;17.20;65.40;;;;;;5034807;28;19919;-21
2021/12/01 01:19:09;;;;;;;0.57;0.40;;;17.20;65.30;;;;;;5035356;28;20055;-28
2021/12/01 01:21:37;;;;;;;1.67;0.57;;;17.20;65.30;;;;;;5034527;28;20132;-28
2021/12/01 01:24:03;;;;;;;1.00;0.38;;;17.20;65.20;;;;;;5035251;28;20045;-28
2021/12/01 01:26:29;;;;;;;0.90;0.50;;;17.20;65.30;;;;;;5018559;28;20494;-26
2021/12/01 01:28:54;;;;;;;0.77;0.40;;;17.20;65.30;;;;;;5022871;28;20119;-22
2021/12/01 01:31:20;;;;;;;0.85;0.45;;;17.20;65.10;;;;;;5017745;28;20049;-25
2021/12/01 01:33:47;;;;;;;2.25;0.60;;;17.20;65.10;;;;;;5015196;28;20066;-26
2021/12/01 01:36:12;;;;;;;1.67;0.38;;;17.20;65.00;;;;;;5021605;28;20060;-25
2021/12/01 01:38:38;;;;;;;1.05;0.40;;;17.20;65.00;;;;;;5028488;28;20050;-22
2021/12/01 01:41:06;;;;;;;1.58;0.30;;;17.20;65.00;;;;;;5014934;28;20054;-24
2021/12/01 01:43:32;;;;;;;1.75;0.40;;;17.20;65.00;;;;;;5014499;28;20046;-31
2021/12/01 01:45:59;;;;;;;1.42;0.32;;;17.20;64.90;;;;;;5014988;28;20038;-23
2021/12/01 01:48:35;;;;;;;3.75;0.50;;;17.20;64.90;;;;;;5014393;28;20050;-25
2021/12/01 01:51:04;;;;;;;1.52;0.38;;;17.20;65.00;;;;;;5026142;28;20116;-28
2021/12/01 01:53:30;;;;;;;0.68;0.30;;;17.20;64.90;;;;;;5034430;28;20065;-26
2021/12/01 01:55:57;;;;;;;0.57;0.30;;;17.20;64.90;;;;;;5034388;28;20033;-26
2021/12/01 01:58:23;;;;;;;0.45;0.40;;;17.20;64.80;;;;;;5034265;28;20042;-27
2021/12/01 02:01:05;;;;;;;0.47;0.30;;;17.20;64.80;;;;;;5034638;28;20071;-26
2021/12/01 02:03:32;;;;;;;0.90;0.40;;;17.20;64.80;;;;;;5034259;28;20049;-24
2021/12/01 02:05:57;;;;;;;0.77;0.30;;;17.20;64.80;;;;;;5034698;28;20534;-22
2021/12/01 02:08:34;;;;;;;0.80;0.30;;;17.20;64.70;;;;;;5033870;28;20045;-25
2021/12/01 02:11:01;;;;;;;0.32;0.30;;;17.20;64.60;;;;;;5034557;28;20524;-28
2021/12/01 02:13:27;;;;;;;0.70;0.35;;;17.20;64.70;;;;;;5034259;28;20041;-29
2021/12/01 02:15:53;;;;;;;1.38;0.20;;;17.20;64.70;;;;;;5034262;28;20441;-22
2021/12/01 02:18:19;;;;;;;1.00;0.40;;;17.20;64.60;;;;;;5034772;28;20042;-24
2021/12/01 02:21:13;;;;;;;0.88;0.40;;;17.20;64.60;;;;;;5028455;28;20541;-27
2021/12/01 02:23:44;;;;;;;0.93;0.38;;;17.20;64.50;;;;;;5030447;28;20045;-22
2021/12/01 02:26:10;;;;;;;1.40;0.22;;;17.20;64.60;;;;;;5014839;28;20094;-24
2021/12/01 02:28:36;;;;;;;0.70;0.40;;;17.20;64.60;;;;;;5014012;28;20049;-24
2021/12/01 02:31:02;;;;;;;1.05;0.38;;;17.20;64.50;;;;;;5014617;28;20042;-28
2021/12/01 02:33:27;;;;;;;0.68;0.20;;;17.20;64.50;;;;;;5014142;28;20128;-23
2021/12/01 02:35:53;;;;;;;0.40;0.40;;;17.20;64.50;;;;;;5014554;28;20034;-24
2021/12/01 02:38:18;;;;;;;0.85;0.30;;;17.20;64.40;;;;;;5014950;28;20049;-23
2021/12/01 02:40:45;;;;;;;0.90;0.20;;;17.20;64.40;;;;;;5013970;28;20029;-24
2021/12/01 02:43:10;;;;;;;0.63;0.50;;;17.20;64.40;;;;;;5014575;28;20103;-27
2021/12/01 02:45:36;;;;;;;0.70;0.20;;;17.20;64.40;;;;;;5013812;28;20077;-32
2021/12/01 02:48:02;;;;;;;0.40;0.30;;;17.20;64.30;;;;;;5014576;28;20061;-30
2021/12/01 02:50:28;;;;;;;0.40;0.20;;;17.20;64.30;;;;;;5020387;28;20498;-25
2021/12/01 02:52:53;;;;;;;0.35;0.25;;;17.20;64.30;;;;;;5034256;28;20045;-26
2021/12/01 02:55:20;;;;;;;1.20;0.20;;;17.20;64.30;;;;;;5033924;28;20056;-27
2021/12/01 02:57:47;;;;;;;0.70;0.20;;;17.20;64.30;;;;;;5033677;28;20049;-25
2021/12/01 03:00:14;;;;;;;0.73;0.20;;;17.20;64.20;;;;;;5034379;28;20045;-29
2021/12/01 03:02:39;;;;;;;0.50;0.20;;;17.20;64.30;;;;;;5033192;28;20042;-22
2021/12/01 03:05:06;;;;;;;0.75;0.35;;;17.20;64.10;;;;;;5032788;28;20038;-27
2021/12/01 03:07:32;;;;;;;0.38;0.25;;;17.20;64.20;;;;;;5033375;28;20176;-24
2021/12/01 03:09:57;;;;;;;0.35;0.30;;;17.20;64.20;;;;;;5033065;28;20042;-25
2021/12/01 03:12:27;;;;;;;0.50;0.47;;;17.20;64.20;;;;;;5022521;28;20406;-24
2021/12/01 03:14:53;;;;;;;0.63;0.35;;;17.20;64.20;;;;;;5018635;28;20049;-27
2021/12/01 03:17:19;;;;;;;0.22;0.20;;;17.20;64.20;;;;;;5034031;28;20586;-24
2021/12/01 03:19:44;;;;;;;0.38;0.10;;;17.20;64.10;;;;;;5034740;28;20111;-26
2021/12/01 03:22:13;;;;;;;0.63;0.20;;;17.20;64.10;;;;;;5037431;28;20037;-26
2021/12/01 03:24:39;;;;;;;0.20;0.20;;;17.20;64.10;;;;;;5037003;28;20733;-24
2021/12/01 03:27:05;;;;;;;0.65;0.20;;;17.20;64.10;;;;;;5037505;28;20088;-26
2021/12/01 03:29:31;;;;;;;0.50;0.22;;;17.20;64.00;;;;;;5029368;28;20449;-22
2021/12/01 03:31:56;;;;;;;1.05;0.20;;;17.20;64.10;;;;;;5026189;28;20411;-32
2021/12/01 03:34:22;;;;;;;0.32;0.20;;;17.10;64.00;;;;;;5037341;28;20042;-25
2021/12/01 03:36:48;;;;;;;1.23;0.25;;;17.20;64.00;;;;;;5034793;28;20057;-29
2021/12/01 03:39:13;;;;;;;0.55;0.25;;;17.20;64.00;;;;;;5037415;28;20049;-27
2021/12/01 03:41:39;;;;;;;0.40;0.20;;;17.20;64.00;;;;;;5035102;28;20107;-28
2021/12/01 03:44:05;;;;;;;0.30;0.10;;;17.20;64.00;;;;;;5037190;28;20114;-22
2021/12/01 03:46:30;;;;;;;0.32;0.20;;;17.20;64.00;;;;;;5036014;28;20449;-24
2021/12/01 03:48:56;;;;;;;0.75;0.13;;;17.20;63.90;;;;;;5037110;28;20058;-27
2021/12/01 03:51:22;;;;;;;0.10;0.00;;;17.20;64.00;;;;;;5036775;28;20041;-25
2021/12/01 03:53:49;;;;;;;0.32;0.30;;;17.20;63.90;;;;;;5036374;28;20076;-25
2021/12/01 03:56:14;;;;;;;0.43;0.20;;;17.10;63.90;;;;;;5036759;28;20531;-25
2021/12/01 03:58:40;;;;;;;0.17;0.17;;;17.20;63.90;;;;;;5036265;28;20041;-24
2021/12/01 04:01:10;;;;;;;0.20;0.10;;;17.20;63.90;;;;;;5036551;28;20052;-21
2021/12/01 04:03:36;;;;;;;0.20;0.10;;;17.20;64.00;;;;;;5036331;28;20041;-28
2021/12/01 04:06:01;;;;;;;0.20;0.10;;;17.20;63.90;;;;;;5035109;28;20033;-29
2021/12/01 04:08:27;;;;;;;0.30;0.10;;;17.20;63.90;;;;;;5026250;28;20478;-33
2021/12/01 04:10:52;;;;;;;0.10;0.10;;;17.20;63.90;;;;;;5033531;28;20042;-27
2021/12/01 04:13:18;;;;;;;0.15;0.15;;;17.20;63.90;;;;;;5016757;28;20046;-25
2021/12/01 04:15:44;;;;;;;0.10;0.10;;;17.20;63.90;;;;;;5016044;28;20042;-26
2021/12/01 04:18:09;;;;;;;0.65;0.20;;;17.20;63.90;;;;;;5001408;28;20096;-21
2021/12/01 04:20:35;;;;;;;0.30;0.10;;;17.20;63.90;;;;;;5040631;28;20037;-27
2021/12/01 04:23:01;;;;;;;1.77;0.20;;;17.20;63.90;;;;;;5025233;28;20658;-23
2021/12/01 04:25:26;;;;;;;0.10;0.10;;;17.20;63.80;;;;;;5033809;28;20072;-26
2021/12/01 04:27:53;;;;;;;0.50;0.10;;;17.20;64.70;;;;;;5015570;28;20113;-21
2021/12/01 04:30:21;;;;;;;0.63;0.20;;;17.20;63.80;;;;;;5016102;28;20064;-28
2021/12/01 04:32:47;;;;;;;0.10;0.10;;;17.20;63.80;;;;;;5015229;28;20042;-25
2021/12/01 04:35:16;;;;;;;0.25;0.10;;;17.20;63.90;;;;;;5016355;28;20644;-23
2021/12/01 04:37:42;;;;;;;0.30;0.10;;;17.20;63.80;;;;;;5015461;28;20046;-24
2021/12/01 04:40:08;;;;;;;0.30;0.10;;;17.20;63.80;;;;;;5016303;28;20042;-25
2021/12/01 04:42:34;;;;;;;0.40;0.15;;;17.20;63.80;;;;;;5015142;28;20038;-23
2021/12/01 04:44:59;;;;;;;0.73;0.28;;;17.20;63.80;;;;;;5015903;28;20038;-24
2021/12/01 04:47:30;;;;;;;0.30;0.20;;;17.20;63.70;;;;;;5015863;28;20058;-27
2021/12/01 04:49:56;;;;;;;0.63;0.30;;;17.20;63.70;;;;;;5044647;28;20100;-24
2021/12/01 04:52:22;;;;;;;0.10;0.10;;;17.20;63.70;;;;;;5050214;28;20041;-23
2021/12/01 04:54:47;;;;;;;0.22;0.10;;;17.20;63.70;;;;;;5036682;28;20091;-23
2021/12/01 04:57:13;;;;;;;0.30;0.13;;;17.20;63.60;;;;;;5055384;28;20051;-28
2021/12/01 04:59:39;;;;;;;0.10;0.10;;;17.20;63.70;;;;;;5054807;28;20052;-26
2021/12/01 05:02:04;;;;;;;0.20;0.20;;;17.20;63.70;;;;;;5054160;28;20073;-26
2021/12/01 05:04:30;;;;;;;0.05;0.05;;;17.20;63.70;;;;;;5046146;28;20099;-29
2021/12/01 05:06:56;;;;;;;0.40;0.10;;;17.20;63.80;;;;;;5024142;28;20045;-25
2021/12/01 05:09:21;;;;;;;0.20;0.20;;;17.20;63.80;;;;;;5035411;28;20498;-22
2021/12/01 05:11:47;;;;;;;0.35;0.10;;;17.20;63.70;;;;;;5034315;28;20045;-29
2021/12/01 05:14:13;;;;;;;0.10;0.05;;;17.20;63.70;;;;;;5024509;28;20050;-28
2021/12/01 05:16:40;;;;;;;0.22;0.20;;;17.20;63.60;;;;;;5029932;28;20157;-24
2021/12/01 05:19:06;;;;;;;0.30;0.10;;;17.20;63.60;;;;;;5023069;28;20509;-24
2021/12/01 05:21:32;;;;;;;0.32;0.10;;;17.30;63.60;;;;;;5032332;28;20115;-24
2021/12/01 05:23:58;;;;;;;0.13;0.10;;;17.20;63.60;;;;;;5045127;28;20049;-25
2021/12/01 05:26:24;;;;;;;0.38;0.13;;;17.20;63.60;;;;;;5033250;28;20048;-25
2021/12/01 05:28:49;;;;;;;0.25;0.20;;;17.20;63.60;;;;;;5032733;28;20219;-24
2021/12/01 05:31:15;;;;;;;0.10;0.10;;;17.20;63.70;;;;;;5032303;28;20065;-27
2021/12/01 05:33:41;;;;;;;1.85;0.10;;;17.20;63.80;;;;;;5033203;28;20061;-29
2021/12/01 05:36:07;;;;;;;2.42;0.40;;;17.20;64.00;;;;;;5034083;28;20575;-25
2021/12/01 05:38:33;;;;;;;1.98;0.65;;;17.20;64.00;;;;;;5033002;28;20037;-23
2021/12/01 05:40:58;;;;;;;0.60;0.20;;;17.20;64.00;;;;;;5033900;28;20045;-25
2021/12/01 05:43:24;;;;;;;1.25;0.20;;;17.20;64.30;;;;;;5033400;28;20041;-22
2021/12/01 05:45:50;;;;;;;1.45;0.60;;;17.20;64.40;;;;;;5033026;28;20107;-25
2021/12/01 05:48:15;;;;;;;1.30;0.50;;;17.30;64.50;;;;;;5032227;28;20050;-21
2021/12/01 05:50:41;;;;;;;0.93;0.30;;;17.20;64.70;;;;;;5032410;28;20069;-26
2021/12/01 05:53:07;;;;;;;5.63;0.50;;;17.30;64.80;;;;;;5033342;28;20037;-26
2021/12/01 05:55:33;;;;;;;6.45;0.45;;;17.20;64.90;;;;;;5034015;28;20045;-24
2021/12/01 05:57:58;;;;;;;3.33;0.65;;;17.30;65.50;;;;;;5032837;28;20394;-28
2021/12/01 06:00:24;;;;;;;3.22;0.38;;;17.30;65.10;;;;;;5033753;28;20041;-25
2021/12/01 06:02:51;;;;;;;3.35;0.60;;;17.30;65.20;;;;;;5032704;28;20460;-30
2021/12/01 06:05:20;;;;;;;2.03;0.63;;;17.30;65.10;;;;;;5033590;28;20049;-21
2021/12/01 06:07:47;;;;;;;0.98;0.40;;;17.30;65.30;;;;;;5032802;28;20033;-24
2021/12/01 06:10:13;;;;;;;1.13;0.38;;;17.30;65.20;;;;;;5031494;28;20103;-22
2021/12/01 06:12:42;;;;;;;4.07;1.10;;;17.30;65.20;;;;;;5032487;28;20033;-26
2021/12/01 06:15:08;;;;;;;5.18;0.50;;;17.30;65.30;;;;;;5033589;28;20049;-28
2021/12/01 06:17:34;;;;;;;1.80;0.45;;;17.30;65.30;;;;;;5047810;28;20037;-28
2021/12/01 06:20:00;;;;;;;2.33;0.50;;;17.30;65.20;;;;;;5030343;28;20048;-25
2021/12/01 06:22:26;;;;;;;3.92;0.60;;;17.30;65.30;;;;;;5033067;28;20041;-26
2021/12/01 06:24:51;;;;;;;1.65;0.40;;;17.30;65.10;;;;;;5033221;28;20140;-28
2021/12/01 06:27:17;;;;;;;1.90;0.20;;;17.30;65.30;;;;;;5033381;28;20038;-26
2021/12/01 06:29:42;;;;;;;2.67;0.47;;;17.30;65.00;;;;;;5032373;28;20049;-27
2021/12/01 06:32:08;;;;;;;2.63;0.30;;;17.30;65.10;;;;;;5032883;28;20041;-27
2021/12/01 06:34:34;;;;;;;0.85;0.30;;;17.30;65.00;;;;;;5032889;28;20414;-25
2021/12/01 06:37:00;;;;;;;1.92;0.40;;;17.30;64.90;;;;;;5030891;28;20053;-32
2021/12/01 06:39:25;;;;;;;1.25;0.45;;;17.30;64.90;;;;;;5029402;28;20057;-24
2021/12/01 06:41:54;;;;;;;1.55;0.40;;;17.30;64.90;;;;;;5037983;28;20100;-28
2021/12/01 06:44:20;;;;;;;0.75;0.30;;;17.30;64.80;;;;;;5028469;28;20454;-32
2021/12/01 06:46:45;;;;;;;3.30;0.57;;;17.30;65.10;;;;;;5022396;28;20042;-26
2021/12/01 06:49:11;;;;;;;1.92;0.35;;;17.40;64.90;;;;;;5024877;28;20124;-24
2021/12/01 06:51:36;;;;;;;1.25;0.40;;;17.30;64.90;;;;;;5026965;28;20135;-27
2021/12/01 06:54:02;;;;;;;0.77;0.25;;;17.30;65.10;;;;;;5030294;28;20073;-24
2021/12/01 06:56:28;;;;;;;1.95;0.25;;;17.30;65.10;;;;;;5032473;28;20041;-25
2021/12/01 06:58:53;;;;;;;0.70;0.32;;;17.40;65.10;;;;;;5025248;28;20056;-31
2021/12/01 07:01:19;;;;;;;2.35;0.20;;;17.30;65.00;;;;;;5027009;28;20073;-24
2021/12/01 07:03:45;;;;;;;1.70;0.50;;;17.30;65.00;;;;;;5043599;28;20644;-24
2021/12/01 07:06:10;;;;;;;0.75;0.38;;;17.30;65.00;;;;;;5032948;28;20045;-26
2021/12/01 07:08:36;;;;;;;1.95;0.35;;;17.40;65.00;;;;;;5033875;28;20556;-30
2021/12/01 07:11:02;;;;;;;1.80;0.30;;;17.40;65.00;;;;;;5027095;28;20041;-22
2021/12/01 07:13:37;;;;;;;4.85;0.32;;;17.30;64.90;;;;;;5034446;28;20038;-23
2021/12/01 07:16:03;;;;;;;3.50;0.20;;;17.30;64.90;;;;;;5033175;28;20041;-25
2021/12/01 07:18:29;;;;;;;0.60;0.28;;;17.30;64.90;;;;;;5051344;28;20047;-32
2021/12/01 07:20:54;;;;;;;1.95;0.20;;;17.40;64.90;;;;;;5046825;28;20124;-34
2021/12/01 07:23:20;;;;;;;0.90;0.50;;;17.30;64.80;;;;;;5030821;28;20832;-31
2021/12/01 07:25:45;;;;;;;2.15;0.40;;;17.30;64.80;;;;;;5036882;28;20053;-29
2021/12/01 07:28:11;;;;;;;0.70;0.30;;;17.30;64.90;;;;;;5032660;28;20041;-22
2021/12/01 07:30:39;;;;;;;1.15;0.45;;;17.40;64.90;;;;;;5033458;28;20498;-27
2021/12/01 07:33:05;;;;;;;2.00;0.90;;;17.40;64.70;;;;;;5034199;28;20033;-23
2021/12/01 07:35:31;;;;;;;0.47;0.20;;;17.40;64.70;;;;;;5030642;28;20021;-34
2021/12/01 07:37:56;;;;;;;1.38;0.35;;;17.40;64.70;;;;;;5044769;28;20036;-26
2021/12/01 07:40:22;;;;;;;2.45;0.35;;;17.30;64.60;;;;;;5058739;28;20028;-23
2021/12/01 07:42:48;;;;;;;4.05;0.30;;;17.30;64.60;;;;;;5040575;28;20009;-29
2021/12/01 07:45:13;;;;;;;2.40;0.30;;;17.30;64.60;;;;;;5038718;28;20029;-24
2021/12/01 07:47:39;;;;;;;2.45;0.55;;;17.30;64.60;;;;;;5038101;28;20053;-28
2021/12/01 07:50:06;;;;;;;1.80;0.35;;;17.30;64.60;;;;;;5038008;28;20083;-26
2021/12/01 07:52:32;;;;;;;1.08;0.45;;;17.30;64.60;;;;;;5038874;28;20032;-36
2021/12/01 07:54:58;;;;;;;0.52;0.30;;;17.30;64.60;;;;;;5038434;28;20065;-32
2021/12/01 07:57:23;;;;;;;0.60;0.30;;;17.30;64.50;;;;;;5038435;28;20029;-27
2021/12/01 07:59:49;;;;;;;0.85;0.47;;;17.30;64.60;;;;;;5038329;28;20029;-25
2021/12/01 08:02:15;;;;;;;0.63;0.30;;;17.30;64.50;;;;;;5035810;28;20022;-28
2021/12/01 08:04:40;;;;;;;1.20;0.50;;;17.30;64.40;;;;;;5037623;28;20026;-24
2021/12/01 08:07:06;;;;;;;1.02;0.30;;;17.30;64.40;;;;;;5019133;28;20025;-27
2021/12/01 08:09:31;;;;;;;2.47;0.65;;;17.40;64.40;;;;;;5032581;28;20049;-30
2021/12/01 08:11:57;;;;;;;2.22;0.57;;;17.40;64.40;;;;;;5038066;28;20021;-29
2021/12/01 08:14:23;;;;;;;4.03;0.60;;;17.30;64.40;;;;;;5035853;28;20043;-31
2021/12/01 08:16:49;;;;;;;0.43;0.30;;;17.30;64.30;;;;;;5005423;28;20018;-21
2021/12/01 08:19:14;;;;;;;1.40;0.40;;;17.30;64.30;;;;;;5034537;28;20021;-28
2021/12/01 08:21:40;;;;;;;0.50;0.30;;;17.30;64.30;;;;;;5035308;28;20038;-28
2021/12/01 08:24:06;;;;;;;0.95;0.40;;;17.40;64.30;;;;;;5037028;28;20041;-26
2021/12/01 08:26:32;;;;;;;0.70;0.32;;;17.30;64.20;;;;;;5036279;28;20048;-32
2021/12/01 08:28:57;;;;;;;0.75;0.40;;;17.30;64.10;;;;;;5036756;28;20052;-28
2021/12/01 08:31:23;;;;;;;1.85;0.40;;;17.30;64.10;;;;;;5035441;28;20103;-24
2021/12/01 08:33:49;;;;;;;1.67;0.50;;;17.40;64.20;;;;;;5036619;28;20057;-29
2021/12/01 08:36:15;;;;;;;1.60;0.30;;;17.40;64.20;;;;;;5036619;28;20041;-32
2021/12/01 08:38:41;;;;;;;0.47;0.30;;;17.40;64.10;;;;;;5052848;28;20112;-34
2021/12/01 08:41:06;;;;;;;0.43;0.20;;;17.40;64.10;;;;;;5056543;28;20052;-27
2021/12/01 08:43:33;;;;;;;0.52;0.40;;;17.40;64.00;;;;;;5055679;28;20045;-27
2021/12/01 08:45:59;;;;;;;0.95;0.20;;;17.30;64.00;;;;;;5056368;28;20040;-31
2021/12/01 08:48:25;;;;;;;1.27;0.30;;;17.30;64.00;;;;;;5055670;28;20531;-27
2021/12/01 08:50:50;;;;;;;0.85;0.30;;;17.40;64.00;;;;;;5045986;28;20441;-29
2021/12/01 08:53:16;;;;;;;1.40;0.40;;;17.40;64.00;;;;;;5036034;28;20068;-31
2021/12/01 08:55:41;;;;;;;0.93;0.25;;;17.40;63.90;;;;;;5035784;28;20041;-35
2021/12/01 08:58:08;;;;;;;0.50;0.30;;;17.40;63.90;;;;;;5036360;28;20045;-33
2021/12/01 09:00:36;;;;;;;1.10;0.20;;;17.40;63.80;;;;;;5035371;28;20088;-33
2021/12/01 09:03:02;;;;;;;0.60;0.28;;;17.40;63.80;;;;;;5036061;28;20052;-24
2021/12/01 09:05:27;;;;;;;3.05;0.50;;;17.40;63.80;;;;;;5034601;28;20414;-30
2021/12/01 09:07:53;;;;;;;2.30;0.55;;;17.40;63.80;;;;;;5029846;28;20041;-36
2021/12/01 09:10:19;;;;;;;1.30;0.40;;;17.40;63.70;;;;;;5017643;28;20041;-25
2021/12/01 09:12:45;;;;;;;2.08;0.22;;;17.40;63.70;;;;;;5035085;28;20037;-27
2021/12/01 09:15:10;;;;;;;1.10;0.50;;;17.40;63.60;;;;;;5035798;28;20051;-35
2021/12/01 09:17:36;;;;;;;0.32;0.20;;;17.40;63.60;;;;;;5034220;28;20104;-21
2021/12/01 09:20:03;;;;;;;0.90;0.50;;;17.40;63.50;;;;;;5035617;28;20041;-25
2021/12/01 09:22:28;;;;;;;1.00;0.30;;;17.40;63.50;;;;;;5035116;28;20049;-24
2021/12/01 09:24:54;;;;;;;0.47;0.20;;;17.40;63.50;;;;;;5042927;28;20045;-25
2021/12/01 09:27:20;;;;;;;0.98;0.38;;;17.40;63.40;;;;;;5044063;28;20052;-35
2021/12/01 09:29:45;;;;;;;1.67;0.20;;;17.50;63.50;;;;;;5042599;28;20102;-27
2021/12/01 09:32:12;;;;;;;1.08;0.28;;;17.50;63.40;;;;;;5031467;28;20104;-29
2021/12/01 09:34:39;;;;;;;0.90;0.45;;;17.50;63.30;;;;;;5027960;28;20132;-30
2021/12/01 09:37:05;;;;;;;1.13;0.43;;;17.50;63.40;;;;;;5035307;28;20045;-27
2021/12/01 09:39:31;;;;;;;0.88;0.40;;;17.50;63.20;;;;;;5038676;28;20541;-28
2021/12/01 09:41:57;;;;;;;0.52;0.40;;;17.50;63.20;;;;;;5044805;28;20045;-36
2021/12/01 09:44:22;;;;;;;0.70;0.43;;;17.50;63.20;;;;;;5039202;28;20067;-26
2021/12/01 09:46:48;;;;;;;0.77;0.28;;;17.50;63.20;;;;;;5050709;28;20080;-32
2021/12/01 09:49:13;;;;;;;1.48;0.45;;;17.50;63.20;;;;;;5034771;28;20056;-30
2021/12/01 09:51:39;;;;;;;0.45;0.30;;;17.50;63.20;;;;;;5041098;28;20108;-34
2021/12/01 09:54:05;;;;;;;0.85;0.50;;;17.50;63.10;;;;;;5028238;28;20049;-33
2021/12/01 09:56:31;;;;;;;0.98;0.60;;;17.50;63.20;;;;;;5023222;28;20045;-33
2021/12/01 09:58:57;;;;;;;0.73;0.40;;;17.50;63.10;;;;;;5031161;28;20636;-30
2021/12/01 10:01:23;;;;;;;1.75;0.30;;;17.60;63.10;;;;;;5030972;28;20098;-31
2021/12/01 10:03:49;;;;;;;1.00;0.13;;;17.60;63.10;;;;;;5031598;28;20068;-28
2021/12/01 10:06:17;;;;;;;0.57;0.30;;;17.60;63.00;;;;;;5037949;28;20056;-27
2021/12/01 10:09:14;;;;;;;0.55;0.30;;;17.60;63.10;;;;;;5033760;28;20068;-27
2021/12/01 10:11:41;;;;;;;0.50;0.22;;;17.60;63.10;;;;;;5034905;28;20567;-25
2021/12/01 10:14:10;;;;;;;0.90;0.40;;;17.60;63.00;;;;;;5028459;28;20056;-34
2021/12/01 10:16:37;;;;;;;0.82;0.40;;;17.60;63.00;;;;;;5023653;28;20104;-31
2021/12/01 10:19:07;;;;;;;0.28;0.28;;;17.60;63.00;;;;;;5031184;28;20100;-31
2021/12/01 10:21:37;;;;;;;0.65;0.50;;;17.60;63.00;;;;;;5019683;28;20046;-31
2021/12/01 10:24:09;;;;;;;0.57;0.30;;;17.60;63.00;;;;;;5026909;28;20057;-31
2021/12/01 10:26:46;;;;;;;0.45;0.32;;;17.60;63.00;;;;;;5033559;28;20180;-28
2021/12/01 10:29:15;;;;;;;1.42;0.47;;;17.60;63.00;;;;;;5024671;28;20049;-24
2021/12/01 10:31:47;;;;;;;0.75;0.30;;;17.60;63.00;;;;;;5039769;28;20041;-24
2021/12/01 10:34:18;;;;;;;0.63;0.40;;;17.60;63.10;;;;;;5038493;28;20052;-24
2021/12/01 10:36:45;;;;;;;0.57;0.40;;;17.60;63.10;;;;;;5040833;28;20514;-28
2021/12/01 10:39:11;;;;;;;0.60;0.30;;;17.60;63.00;;;;;;5064602;28;20037;-27
2021/12/01 10:41:37;;;;;;;0.77;0.40;;;17.60;63.10;;;;;;5058017;28;20401;-21
2021/12/01 10:44:18;;;;;;;1.48;0.40;;;17.60;63.00;;;;;;5058513;28;20513;-25
2021/12/01 10:46:46;;;;;;;1.02;0.35;;;17.60;63.00;;;;;;5057494;28;20041;-31
2021/12/01 10:49:12;;;;;;;0.40;0.20;;;17.60;63.00;;;;;;5058311;28;20049;-27
2021/12/01 10:51:39;;;;;;;1.13;0.30;;;17.60;62.90;;;;;;5049002;28;20047;-27
2021/12/01 10:54:05;;;;;;;1.13;0.40;;;17.60;62.90;;;;;;5046709;28;20048;-29
2021/12/01 10:56:31;;;;;;;1.75;0.40;;;17.60;63.00;;;;;;5033564;28;20072;-32
2021/12/01 10:58:56;;;;;;;0.43;0.30;;;17.60;63.00;;;;;;5026478;28;20049;-25
2021/12/01 11:01:24;;;;;;;0.88;0.43;;;17.60;63.80;;;;;;5026643;28;20520;-32
2021/12/01 11:03:50;;;;;;;0.45;0.30;;;17.60;62.90;;;;;;5031575;28;20045;-28
2021/12/01 11:06:21;;;;;;;0.70;0.40;;;17.60;62.80;;;;;;5031470;28;20041;-20
2021/12/01 11:08:59;;;;;;;0.50;0.47;;;17.60;62.80;;;;;;5037495;28;20045;-29
2021/12/01 11:11:35;;;;;;;0.75;0.38;;;17.60;62.70;;;;;;5018255;28;20125;-29
2021/12/01 11:14:11;;;;;;;0.57;0.30;;;17.60;62.60;;;;;;5025136;28;20125;-31
2021/12/01 11:16:37;;;;;;;0.40;0.30;;;17.70;62.70;;;;;;5043871;28;20053;-27
2021/12/01 11:19:03;;;;;;;0.40;0.40;;;17.70;62.70;;;;;;5038078;28;20049;-31
2021/12/01 11:21:29;;;;;;;0.43;0.38;;;17.70;62.70;;;;;;5038016;28;20048;-29
2021/12/01 11:23:56;;;;;;;0.80;0.30;;;17.70;62.70;;;;;;5036093;28;20068;-31
2021/12/01 11:26:23;;;;;;;0.45;0.40;;;17.70;62.60;;;;;;5037943;28;20072;-24
2021/12/01 11:28:55;;;;;;;0.47;0.30;;;17.70;62.60;;;;;;5036786;28;20053;-23
2021/12/01 11:31:23;;;;;;;0.82;0.35;;;17.70;62.60;;;;;;5037784;28;20087;-20
2021/12/01 11:33:49;;;;;;;0.40;0.30;;;17.70;62.60;;;;;;5036745;28;20044;-23
2021/12/01 11:36:16;;;;;;;1.30;0.28;;;17.70;62.60;;;;;;5037505;28;20037;-23
2021/12/01 11:38:42;;;;;;;1.55;0.50;;;17.70;62.60;;;;;;5037106;28;20513;-28
2021/12/01 11:41:09;;;;;;;1.05;0.50;;;17.70;62.70;;;;;;5036445;28;20037;-23
2021/12/01 11:43:35;;;;;;;0.98;0.30;;;17.70;62.70;;;;;;5036795;28;20048;-24
2021/12/01 11:46:01;;;;;;;1.27;0.50;;;17.70;62.90;;;;;;5037453;28;20188;-25
2021/12/01 11:48:36;;;;;;;1.10;0.30;;;17.70;62.90;;;;;;5037334;28;20053;-24
2021/12/01 11:51:19;;;;;;;0.50;0.30;;;17.70;62.90;;;;;;5037500;28;20416;-28
2021/12/01 11:53:47;;;;;;;0.70;0.20;;;17.80;62.90;;;;;;5034108;28;20110;-28
2021/12/01 11:56:29;;;;;;;0.52;0.30;;;17.80;62.90;;;;;;5027868;28;20502;-26
2021/12/01 11:58:59;;;;;;;1.20;0.60;;;17.80;62.90;;;;;;5040630;28;20076;-27
2021/12/01 12:01:25;;;;;;;0.70;0.50;;;17.80;63.10;;;;;;5038412;28;20530;-26
2021/12/01 12:03:54;;;;;;;1.20;0.40;;;17.80;63.00;;;;;;5042715;28;20053;-25
2021/12/01 12:06:20;;;;;;;2.05;0.30;;;17.80;63.00;;;;;;5029439;28;20049;-32
2021/12/01 12:09:08;;;;;;;0.60;0.40;;;17.80;63.10;;;;;;5030347;28;20037;-33
2021/12/01 12:11:40;;;;;;;0.82;0.30;;;17.90;63.00;;;;;;5038660;28;20038;-26
2021/12/01 12:14:16;;;;;;;0.82;0.30;;;17.90;63.30;;;;;;5016429;28;20529;-29
2021/12/01 12:16:59;;;;;;;0.50;0.40;;;17.90;63.00;;;;;;5021182;28;20045;-30
2021/12/01 12:19:44;;;;;;;0.60;0.43;;;17.90;63.00;;;;;;5026133;28;20049;-31
2021/12/01 12:22:11;;;;;;;2.28;0.85;;;17.80;63.10;;;;;;5018510;28;20041;-35
2021/12/01 12:24:45;;;;;;;1.23;0.60;;;17.80;63.20;;;;;;5033704;28;20109;-31
2021/12/01 12:27:43;;;;;;;0.85;0.43;;;17.90;63.40;;;;;;5044111;28;20083;-35
2021/12/01 12:30:29;;;;;;;1.27;0.30;;;17.90;63.40;;;;;;4993962;28;20049;-31
2021/12/01 12:33:15;;;;;;;0.63;0.28;;;17.80;63.40;;;;;;5026996;28;20072;-30
2021/12/01 12:35:41;;;;;;;1.52;0.50;;;17.80;63.50;;;;;;5022001;28;20402;-24
2021/12/01 12:38:08;;;;;;;3.08;0.45;;;17.80;63.50;;;;;;5034499;28;20113;-26
2021/12/01 12:40:33;;;;;;;1.00;0.40;;;17.80;63.50;;;;;;5042197;28;20056;-26
2021/12/01 12:43:04;;;;;;;2.10;0.40;;;17.80;63.50;;;;;;5040176;28;20136;-28
2021/12/01 12:45:29;;;;;;;2.15;0.40;;;17.80;63.60;;;;;;5039990;28;20046;-32
2021/12/01 12:47:55;;;;;;;1.17;0.50;;;17.80;63.50;;;;;;5046167;28;20045;-31
2021/12/01 12:50:22;;;;;;;3.95;0.65;;;17.80;63.60;;;;;;5010978;28;20441;-27
2021/12/01 12:52:53;;;;;;;2.97;0.63;;;17.80;63.70;;;;;;5017580;28;20041;-30